sensor_id;sensor_type;location;lat;lon;timestamp;pressure;altitude;pressure_sealevel;temperature;humidity
33845;BME280;20145;43.118;25.694;2023-05-23T00:03:28;99244.78;;;12.50;100.00
33845;BME280;20145;43.118;25.694;2023-05-23T00:06:05;99238.84;;;12.45;100.00
33845;BME280;20145;43.118;25.694;2023-05-23T00:08:34;99242.44;;;12.38;100.00
33845;BME280;20145;43.118;25.694;2023-05-23T00:11:01;99239.09;;;12.34;100.00
33845;BME280;20145;43.118;25.694;2023-05-23T00:13:37;99210.94;;;12.19;100.00
33845;BME280;20145;43.118;25.694;2023-05-23T00:19:15;99232.25;;;12.30;100.00
33845;BME280;20145;43.118;25.694;2023-05-23T00:21:45;99222.94;;;12.23;100.00
33845;BME280;20145;43.118;25.694;2023-05-23T00:24:36;99231.47;;;12.28;100.00
33845;BME280;20145;43.118;25.694;2023-05-23T00:30:32;99227.28;;;12.22;100.00
33845;BME280;20145;43.118;25.694;2023-05-23T00:33:08;99221.28;;;12.19;100.00
33845;BME280;20145;43.118;25.694;2023-05-23T00:35:36;99194.81;;;12.08;100.00
33845;BME280;20145;43.118;25.694;2023-05-23T00:41:17;99229.06;;;12.19;100.00
33845;BME280;20145;43.118;25.694;2023-05-23T00:43:56;99221.44;;;12.13;100.00
33845;BME280;20145;43.118;25.694;2023-05-23T00:46:28;99224.09;;;12.08;100.00
33845;BME280;20145;43.118;25.694;2023-05-23T00:49:09;99221.59;;;12.05;100.00
33845;BME280;20145;43.118;25.694;2023-05-23T00:55:16;99229.50;;;11.99;100.00
33845;BME280;20145;43.118;25.694;2023-05-23T00:57:47;99222.69;;;11.95;100.00
33845;BME280;20145;43.118;25.694;2023-05-23T01:00:27;99226.88;;;12.00;100.00
33845;BME280;20145;43.118;25.694;2023-05-23T01:09:20;99241.38;;;12.08;100.00
33845;BME280;20145;43.118;25.694;2023-05-23T01:21:11;99235.84;;;12.24;100.00
33845;BME280;20145;43.118;25.694;2023-05-23T01:30:14;99246.00;;;12.34;100.00
33845;BME280;20145;43.118;25.694;2023-05-23T01:32:43;99245.09;;;12.35;100.00
33845;BME280;20145;43.118;25.694;2023-05-23T01:35:09;99237.34;;;12.35;100.00
33845;BME280;20145;43.118;25.694;2023-05-23T01:37:48;99231.31;;;12.34;100.00
33845;BME280;20145;43.118;25.694;2023-05-23T01:40:37;99242.28;;;12.45;100.00
33845;BME280;20145;43.118;25.694;2023-05-23T01:43:04;99220.13;;;12.34;100.00
33845;BME280;20145;43.118;25.694;2023-05-23T01:52:33;99245.94;;;12.37;100.00
33845;BME280;20145;43.118;25.694;2023-05-23T01:55:02;99239.19;;;12.30;100.00
33845;BME280;20145;43.118;25.694;2023-05-23T01:57:54;99207.69;;;12.11;100.00
33845;BME280;20145;43.118;25.694;2023-05-23T02:00:21;99235.19;;;12.15;100.00
33845;BME280;20145;43.118;25.694;2023-05-23T02:02:47;99241.28;;;12.12;100.00
33845;BME280;20145;43.118;25.694;2023-05-23T02:05:32;99242.97;;;12.13;100.00
33845;BME280;20145;43.118;25.694;2023-05-23T02:08:05;99246.53;;;12.09;100.00
33845;BME280;20145;43.118;25.694;2023-05-23T02:10:49;99244.78;;;12.08;100.00
33845;BME280;20145;43.118;25.694;2023-05-23T02:13:15;99232.91;;;11.99;100.00
33845;BME280;20145;43.118;25.694;2023-05-23T02:15:40;99218.44;;;11.92;100.00
33845;BME280;20145;43.118;25.694;2023-05-23T02:18:07;99233.69;;;12.04;100.00
33845;BME280;20145;43.118;25.694;2023-05-23T02:20:32;99240.53;;;12.07;100.00
33845;BME280;20145;43.118;25.694;2023-05-23T02:22:58;99241.44;;;12.04;100.00
33845;BME280;20145;43.118;25.694;2023-05-23T02:35:00;99254.47;;;12.00;100.00
33845;BME280;20145;43.118;25.694;2023-05-23T02:37:26;99257.94;;;11.99;100.00
33845;BME280;20145;43.118;25.694;2023-05-23T02:39:58;99262.25;;;11.98;100.00
33845;BME280;20145;43.118;25.694;2023-05-23T02:42:25;99257.00;;;12.01;100.00
33845;BME280;20145;43.118;25.694;2023-05-23T02:44:50;99262.09;;;12.06;100.00
33845;BME280;20145;43.118;25.694;2023-05-23T02:47:17;99236.41;;;11.98;100.00
33845;BME280;20145;43.118;25.694;2023-05-23T02:49:44;99251.63;;;12.12;100.00
33845;BME280;20145;43.118;25.694;2023-05-23T02:52:11;99239.63;;;12.08;100.00
33845;BME280;20145;43.118;25.694;2023-05-23T02:54:49;99248.03;;;12.19;100.00
33845;BME280;20145;43.118;25.694;2023-05-23T02:57:29;99258.13;;;12.30;100.00
33845;BME280;20145;43.118;25.694;2023-05-23T03:03:04;99248.31;;;12.46;100.00
33845;BME280;20145;43.118;25.694;2023-05-23T03:08:47;99230.97;;;12.49;100.00
33845;BME280;20145;43.118;25.694;2023-05-23T03:11:42;99244.41;;;12.65;100.00
33845;BME280;20145;43.118;25.694;2023-05-23T03:14:15;99220.56;;;12.53;100.00
33845;BME280;20145;43.118;25.694;2023-05-23T03:23:03;99247.19;;;12.93;100.00
33845;BME280;20145;43.118;25.694;2023-05-23T03:25:28;99253.00;;;13.03;100.00
33845;BME280;20145;43.118;25.694;2023-05-23T03:40:35;99269.16;;;13.80;100.00
33845;BME280;20145;43.118;25.694;2023-05-23T03:43:04;99266.19;;;13.94;100.00
33845;BME280;20145;43.118;25.694;2023-05-23T03:45:40;99269.66;;;14.24;100.00
33845;BME280;20145;43.118;25.694;2023-05-23T03:48:06;99272.53;;;14.44;100.00
33845;BME280;20145;43.118;25.694;2023-05-23T03:50:32;99270.91;;;14.70;100.00
33845;BME280;20145;43.118;25.694;2023-05-23T03:52:57;99258.84;;;14.95;100.00
33845;BME280;20145;43.118;25.694;2023-05-23T03:55:41;99244.69;;;15.31;100.00
33845;BME280;20145;43.118;25.694;2023-05-23T03:58:09;99271.28;;;15.89;100.00
33845;BME280;20145;43.118;25.694;2023-05-23T04:00:35;99236.00;;;16.05;100.00
33845;BME280;20145;43.118;25.694;2023-05-23T04:03:08;99275.78;;;16.33;99.26
33845;BME280;20145;43.118;25.694;2023-05-23T04:05:34;99267.41;;;16.24;97.72
33845;BME280;20145;43.118;25.694;2023-05-23T04:08:00;99283.47;;;16.36;99.53
33845;BME280;20145;43.118;25.694;2023-05-23T04:10:26;99282.63;;;16.35;98.29
33845;BME280;20145;43.118;25.694;2023-05-23T04:12:51;99286.19;;;16.33;98.56
33845;BME280;20145;43.118;25.694;2023-05-23T04:15:17;99274.38;;;16.24;98.74
33845;BME280;20145;43.118;25.694;2023-05-23T04:17:46;99280.47;;;16.23;98.85
33845;BME280;20145;43.118;25.694;2023-05-23T04:20:12;99295.59;;;16.13;98.96
33845;BME280;20145;43.118;25.694;2023-05-23T04:22:37;99304.78;;;15.98;99.40
33845;BME280;20145;43.118;25.694;2023-05-23T04:25:03;99299.91;;;15.89;100.00
33845;BME280;20145;43.118;25.694;2023-05-23T04:27:30;99303.69;;;15.80;100.00
33845;BME280;20145;43.118;25.694;2023-05-23T04:29:56;99268.81;;;15.59;99.64
33845;BME280;20145;43.118;25.694;2023-05-23T04:32:22;99304.50;;;15.82;99.86
33845;BME280;20145;43.118;25.694;2023-05-23T04:34:48;99298.84;;;15.95;99.69
33845;BME280;20145;43.118;25.694;2023-05-23T04:37:14;99299.66;;;15.97;98.88
33845;BME280;20145;43.118;25.694;2023-05-23T04:39:41;99321.88;;;16.05;98.28
33845;BME280;20145;43.118;25.694;2023-05-23T04:42:07;99307.94;;;16.06;98.81
33845;BME280;20145;43.118;25.694;2023-05-23T04:44:33;99326.69;;;16.16;99.17
33845;BME280;20145;43.118;25.694;2023-05-23T04:47:01;99300.22;;;16.05;98.08
33845;BME280;20145;43.118;25.694;2023-05-23T04:49:27;99288.44;;;15.95;98.95
33845;BME280;20145;43.118;25.694;2023-05-23T04:51:53;99313.63;;;16.18;98.55
33845;BME280;20145;43.118;25.694;2023-05-23T04:54:19;99279.72;;;15.96;98.74
33845;BME280;20145;43.118;25.694;2023-05-23T04:56:45;99305.94;;;16.38;98.51
33845;BME280;20145;43.118;25.694;2023-05-23T04:59:10;99318.09;;;16.61;96.31
33845;BME280;20145;43.118;25.694;2023-05-23T05:01:38;99300.16;;;16.76;95.93
33845;BME280;20145;43.118;25.694;2023-05-23T05:04:05;99271.94;;;16.87;93.81
33845;BME280;20145;43.118;25.694;2023-05-23T05:06:31;99304.78;;;17.35;92.17
33845;BME280;20145;43.118;25.694;2023-05-23T05:08:56;99294.66;;;17.68;91.41
33845;BME280;20145;43.118;25.694;2023-05-23T05:11:22;99274.91;;;17.63;90.02
33845;BME280;20145;43.118;25.694;2023-05-23T05:13:48;99309.22;;;17.94;89.59
33845;BME280;20145;43.118;25.694;2023-05-23T05:16:13;99309.81;;;18.20;88.64
33845;BME280;20145;43.118;25.694;2023-05-23T05:18:39;99304.44;;;18.23;87.48
33845;BME280;20145;43.118;25.694;2023-05-23T05:21:04;99331.38;;;18.44;87.44
33845;BME280;20145;43.118;25.694;2023-05-23T05:23:30;99324.81;;;18.54;88.26
33845;BME280;20145;43.118;25.694;2023-05-23T05:25:57;99327.06;;;18.62;87.94
33845;BME280;20145;43.118;25.694;2023-05-23T05:28:23;99321.44;;;18.71;86.42
33845;BME280;20145;43.118;25.694;2023-05-23T05:30:48;99315.50;;;18.86;85.87
33845;BME280;20145;43.118;25.694;2023-05-23T05:33:19;99315.50;;;19.04;85.92
33845;BME280;20145;43.118;25.694;2023-05-23T05:35:48;99319.34;;;19.15;84.62
33845;BME280;20145;43.118;25.694;2023-05-23T05:38:14;99324.72;;;19.47;85.03
33845;BME280;20145;43.118;25.694;2023-05-23T05:40:39;99312.78;;;19.59;84.69
33845;BME280;20145;43.118;25.694;2023-05-23T05:43:05;99328.44;;;19.78;83.87
33845;BME280;20145;43.118;25.694;2023-05-23T05:45:30;99320.59;;;19.78;82.05
33845;BME280;20145;43.118;25.694;2023-05-23T05:47:56;99330.91;;;19.81;81.12
33845;BME280;20145;43.118;25.694;2023-05-23T05:50:22;99317.66;;;19.84;81.83
33845;BME280;20145;43.118;25.694;2023-05-23T05:52:48;99341.59;;;19.94;82.32
33845;BME280;20145;43.118;25.694;2023-05-23T05:55:14;99323.88;;;19.99;80.80
33845;BME280;20145;43.118;25.694;2023-05-23T05:57:42;99332.03;;;20.10;80.85
33845;BME280;20145;43.118;25.694;2023-05-23T06:00:09;99342.63;;;20.24;80.16
33845;BME280;20145;43.118;25.694;2023-05-23T06:02:43;99336.78;;;20.19;80.10
33845;BME280;20145;43.118;25.694;2023-05-23T06:05:12;99331.63;;;20.34;79.71
33845;BME280;20145;43.118;25.694;2023-05-23T06:07:41;99323.94;;;20.31;80.16
33845;BME280;20145;43.118;25.694;2023-05-23T06:10:06;99330.03;;;20.15;80.45
33845;BME280;20145;43.118;25.694;2023-05-23T06:12:34;99323.47;;;19.73;82.13
33845;BME280;20145;43.118;25.694;2023-05-23T06:15:00;99315.84;;;19.69;83.75
33845;BME280;20145;43.118;25.694;2023-05-23T06:17:26;99335.47;;;19.77;83.38
33845;BME280;20145;43.118;25.694;2023-05-23T06:19:52;99322.00;;;19.68;84.54
33845;BME280;20145;43.118;25.694;2023-05-23T06:22:17;99316.50;;;19.72;83.17
33845;BME280;20145;43.118;25.694;2023-05-23T06:24:43;99333.91;;;19.91;85.49
33845;BME280;20145;43.118;25.694;2023-05-23T06:27:09;99332.06;;;19.93;82.95
33845;BME280;20145;43.118;25.694;2023-05-23T06:29:34;99317.69;;;19.67;83.67
33845;BME280;20145;43.118;25.694;2023-05-23T06:32:01;99316.59;;;19.88;83.76
33845;BME280;20145;43.118;25.694;2023-05-23T06:34:27;99326.63;;;20.13;84.08
33845;BME280;20145;43.118;25.694;2023-05-23T06:36:53;99319.16;;;20.05;83.34
33845;BME280;20145;43.118;25.694;2023-05-23T06:39:19;99334.66;;;19.58;82.25
33845;BME280;20145;43.118;25.694;2023-05-23T06:41:45;99335.34;;;19.61;83.21
33845;BME280;20145;43.118;25.694;2023-05-23T06:44:11;99324.69;;;19.66;83.01
33845;BME280;20145;43.118;25.694;2023-05-23T06:46:37;99318.22;;;19.73;83.56
33845;BME280;20145;43.118;25.694;2023-05-23T06:49:02;99303.56;;;19.87;83.49
33845;BME280;20145;43.118;25.694;2023-05-23T06:51:28;99319.22;;;20.21;81.79
33845;BME280;20145;43.118;25.694;2023-05-23T06:53:53;99318.63;;;20.32;81.48
33845;BME280;20145;43.118;25.694;2023-05-23T06:56:21;99300.19;;;20.18;81.89
33845;BME280;20145;43.118;25.694;2023-05-23T06:58:47;99325.13;;;20.25;81.62
33845;BME280;20145;43.118;25.694;2023-05-23T07:01:13;99321.72;;;20.23;82.97
33845;BME280;20145;43.118;25.694;2023-05-23T07:03:38;99295.53;;;20.23;81.87
33845;BME280;20145;43.118;25.694;2023-05-23T07:06:06;99310.63;;;20.51;81.09
33845;BME280;20145;43.118;25.694;2023-05-23T07:08:32;99305.13;;;20.40;81.93
33845;BME280;20145;43.118;25.694;2023-05-23T07:10:58;99297.22;;;20.57;82.12
33845;BME280;20145;43.118;25.694;2023-05-23T07:13:24;99311.84;;;20.77;81.50
33845;BME280;20145;43.118;25.694;2023-05-23T07:15:49;99313.63;;;20.92;81.20
33845;BME280;20145;43.118;25.694;2023-05-23T07:18:15;99310.72;;;20.97;80.18
33845;BME280;20145;43.118;25.694;2023-05-23T07:20:40;99291.28;;;20.85;80.53
33845;BME280;20145;43.118;25.694;2023-05-23T07:23:06;99305.13;;;21.03;78.42
33845;BME280;20145;43.118;25.694;2023-05-23T07:25:32;99295.91;;;20.96;80.12
33845;BME280;20145;43.118;25.694;2023-05-23T07:27:57;99303.00;;;21.10;78.63
33845;BME280;20145;43.118;25.694;2023-05-23T07:30:23;99302.34;;;21.06;78.52
33845;BME280;20145;43.118;25.694;2023-05-23T07:32:49;99300.03;;;21.00;79.06
33845;BME280;20145;43.118;25.694;2023-05-23T07:35:17;99302.59;;;21.02;79.32
33845;BME280;20145;43.118;25.694;2023-05-23T07:37:42;99301.75;;;21.01;79.67
33845;BME280;20145;43.118;25.694;2023-05-23T07:40:08;99304.38;;;20.85;77.44
33845;BME280;20145;43.118;25.694;2023-05-23T07:42:35;99295.44;;;20.74;78.14
33845;BME280;20145;43.118;25.694;2023-05-23T07:45:01;99313.25;;;20.99;77.16
33845;BME280;20145;43.118;25.694;2023-05-23T07:47:26;99310.13;;;20.92;77.10
33845;BME280;20145;43.118;25.694;2023-05-23T07:49:54;99281.84;;;20.97;77.32
33845;BME280;20145;43.118;25.694;2023-05-23T07:52:19;99291.84;;;21.06;77.40
33845;BME280;20145;43.118;25.694;2023-05-23T07:54:45;99311.38;;;21.16;76.97
33845;BME280;20145;43.118;25.694;2023-05-23T07:57:11;99304.78;;;21.09;76.20
33845;BME280;20145;43.118;25.694;2023-05-23T07:59:37;99299.19;;;21.15;75.89
33845;BME280;20145;43.118;25.694;2023-05-23T08:02:03;99296.09;;;21.39;76.06
33845;BME280;20145;43.118;25.694;2023-05-23T08:04:29;99284.22;;;21.17;77.02
33845;BME280;20145;43.118;25.694;2023-05-23T08:06:55;99287.75;;;21.16;74.28
33845;BME280;20145;43.118;25.694;2023-05-23T08:09:22;99275.59;;;21.30;76.63
33845;BME280;20145;43.118;25.694;2023-05-23T08:11:47;99289.50;;;21.62;77.01
33845;BME280;20145;43.118;25.694;2023-05-23T08:14:13;99290.09;;;21.67;76.02
33845;BME280;20145;43.118;25.694;2023-05-23T08:16:38;99285.47;;;21.56;75.17
33845;BME280;20145;43.118;25.694;2023-05-23T08:19:05;99282.63;;;21.45;75.38
33845;BME280;20145;43.118;25.694;2023-05-23T08:21:30;99274.25;;;21.38;74.92
33845;BME280;20145;43.118;25.694;2023-05-23T08:23:57;99294.56;;;21.51;73.50
33845;BME280;20145;43.118;25.694;2023-05-23T08:26:22;99286.50;;;21.54;73.75
33845;BME280;20145;43.118;25.694;2023-05-23T08:28:48;99282.94;;;21.69;73.00
33845;BME280;20145;43.118;25.694;2023-05-23T08:31:14;99287.28;;;21.70;72.68
33845;BME280;20145;43.118;25.694;2023-05-23T08:33:40;99274.22;;;21.83;72.67
33845;BME280;20145;43.118;25.694;2023-05-23T08:36:05;99256.88;;;21.80;72.75
33845;BME280;20145;43.118;25.694;2023-05-23T08:38:31;99274.59;;;22.05;73.47
33845;BME280;20145;43.118;25.694;2023-05-23T08:40:59;99288.31;;;21.96;71.13
33845;BME280;20145;43.118;25.694;2023-05-23T08:43:25;99262.03;;;21.82;70.70
33845;BME280;20145;43.118;25.694;2023-05-23T08:45:52;99293.47;;;22.12;70.77
33845;BME280;20145;43.118;25.694;2023-05-23T08:48:19;99285.69;;;22.25;71.10
33845;BME280;20145;43.118;25.694;2023-05-23T08:50:46;99289.00;;;22.29;70.47
33845;BME280;20145;43.118;25.694;2023-05-23T08:53:19;99283.38;;;22.20;70.63
33845;BME280;20145;43.118;25.694;2023-05-23T08:55:48;99289.16;;;21.97;71.40
33845;BME280;20145;43.118;25.694;2023-05-23T08:58:16;99280.44;;;21.96;69.32
33845;BME280;20145;43.118;25.694;2023-05-23T09:00:46;99265.88;;;21.76;70.68
33845;BME280;20145;43.118;25.694;2023-05-23T09:03:11;99280.53;;;22.09;70.32
33845;BME280;20145;43.118;25.694;2023-05-23T09:05:40;99272.47;;;22.26;70.29
33845;BME280;20145;43.118;25.694;2023-05-23T09:08:07;99270.22;;;22.06;67.96
33845;BME280;20145;43.118;25.694;2023-05-23T09:10:33;99262.13;;;22.09;67.93
33845;BME280;20145;43.118;25.694;2023-05-23T09:13:02;99267.47;;;22.36;66.75
33845;BME280;20145;43.118;25.694;2023-05-23T09:15:28;99271.28;;;22.59;65.24
33845;BME280;20145;43.118;25.694;2023-05-23T09:17:59;99265.66;;;22.51;65.76
33845;BME280;20145;43.118;25.694;2023-05-23T09:20:27;99258.72;;;22.77;63.81
33845;BME280;20145;43.118;25.694;2023-05-23T09:22:54;99256.91;;;22.92;64.30
33845;BME280;20145;43.118;25.694;2023-05-23T09:25:20;99263.38;;;23.01;64.45
33845;BME280;20145;43.118;25.694;2023-05-23T09:27:45;99250.56;;;23.22;64.68
33845;BME280;20145;43.118;25.694;2023-05-23T09:30:12;99261.97;;;23.60;62.52
33845;BME280;20145;43.118;25.694;2023-05-23T09:32:38;99253.03;;;23.50;62.25
33845;BME280;20145;43.118;25.694;2023-05-23T09:35:05;99260.69;;;23.28;62.75
33845;BME280;20145;43.118;25.694;2023-05-23T09:37:37;99228.34;;;22.86;63.44
33845;BME280;20145;43.118;25.694;2023-05-23T09:40:09;99271.44;;;22.70;63.75
33845;BME280;20145;43.118;25.694;2023-05-23T09:42:35;99274.72;;;22.74;66.00
33845;BME280;20145;43.118;25.694;2023-05-23T09:45:06;99261.09;;;22.94;65.27
33845;BME280;20145;43.118;25.694;2023-05-23T09:47:31;99267.94;;;23.11;64.64
33845;BME280;20145;43.118;25.694;2023-05-23T09:49:57;99253.16;;;22.96;64.59
33845;BME280;20145;43.118;25.694;2023-05-23T09:52:24;99258.09;;;23.53;63.87
33845;BME280;20145;43.118;25.694;2023-05-23T09:54:51;99255.09;;;23.72;62.40
33845;BME280;20145;43.118;25.694;2023-05-23T09:57:18;99249.25;;;23.80;62.40
33845;BME280;20145;43.118;25.694;2023-05-23T09:59:51;99253.44;;;24.08;61.52
33845;BME280;20145;43.118;25.694;2023-05-23T10:03:14;99238.59;;;23.69;59.62
33845;BME280;20145;43.118;25.694;2023-05-23T10:08:26;99249.69;;;24.49;59.85
33845;BME280;20145;43.118;25.694;2023-05-23T10:13:34;99244.84;;;24.43;59.65
33845;BME280;20145;43.118;25.694;2023-05-23T10:18:55;99236.09;;;24.66;57.61
33845;BME280;20145;43.118;25.694;2023-05-23T10:21:35;99225.75;;;24.39;58.21
33845;BME280;20145;43.118;25.694;2023-05-23T10:24:06;99229.88;;;24.43;58.41
33845;BME280;20145;43.118;25.694;2023-05-23T10:26:39;99238.91;;;24.52;57.92
33845;BME280;20145;43.118;25.694;2023-05-23T10:29:07;99236.66;;;24.83;56.31
33845;BME280;20145;43.118;25.694;2023-05-23T10:31:33;99229.69;;;24.21;56.13
33845;BME280;20145;43.118;25.694;2023-05-23T10:34:07;99178.84;;;24.32;56.41
33845;BME280;20145;43.118;25.694;2023-05-23T10:36:51;99234.22;;;24.68;56.81
33845;BME280;20145;43.118;25.694;2023-05-23T10:45:17;99233.53;;;23.66;58.84
33845;BME280;20145;43.118;25.694;2023-05-23T10:47:51;99238.41;;;23.72;58.76
33845;BME280;20145;43.118;25.694;2023-05-23T10:50:35;99236.91;;;23.68;58.96
33845;BME280;20145;43.118;25.694;2023-05-23T10:53:03;99229.66;;;23.58;59.34
33845;BME280;20145;43.118;25.694;2023-05-23T10:55:36;99227.94;;;23.57;59.69
33845;BME280;20145;43.118;25.694;2023-05-23T10:58:09;99206.88;;;23.70;59.41
33845;BME280;20145;43.118;25.694;2023-05-23T11:00:37;99214.78;;;24.33;58.59
33845;BME280;20145;43.118;25.694;2023-05-23T11:03:04;99221.47;;;24.86;58.85
33845;BME280;20145;43.118;25.694;2023-05-23T11:05:33;99224.38;;;25.30;58.33
33845;BME280;20145;43.118;25.694;2023-05-23T11:08:12;99219.75;;;25.45;56.22
33845;BME280;20145;43.118;25.694;2023-05-23T11:11:00;99221.81;;;25.64;54.66
33845;BME280;20145;43.118;25.694;2023-05-23T11:21:43;99216.56;;;25.97;52.75
33845;BME280;20145;43.118;25.694;2023-05-23T11:24:09;99224.31;;;25.65;52.55
33845;BME280;20145;43.118;25.694;2023-05-23T11:26:35;99208.47;;;25.65;51.61
33845;BME280;20145;43.118;25.694;2023-05-23T11:29:01;99201.88;;;26.04;51.74
33845;BME280;20145;43.118;25.694;2023-05-23T11:31:29;99207.84;;;26.29;52.53
33845;BME280;20145;43.118;25.694;2023-05-23T11:33:55;99215.56;;;25.76;54.60
33845;BME280;20145;43.118;25.694;2023-05-23T11:36:23;99232.00;;;25.68;53.78
33845;BME280;20145;43.118;25.694;2023-05-23T11:38:51;99202.56;;;25.50;54.31
33845;BME280;20145;43.118;25.694;2023-05-23T11:41:20;99203.91;;;25.56;54.11
33845;BME280;20145;43.118;25.694;2023-05-23T11:43:52;99204.00;;;25.54;53.72
33845;BME280;20145;43.118;25.694;2023-05-23T11:46:18;99194.41;;;25.42;54.47
33845;BME280;20145;43.118;25.694;2023-05-23T11:48:47;99216.63;;;25.73;54.10
33845;BME280;20145;43.118;25.694;2023-05-23T11:51:14;99195.00;;;25.79;53.07
33845;BME280;20145;43.118;25.694;2023-05-23T11:53:40;99207.28;;;25.69;52.25
33845;BME280;20145;43.118;25.694;2023-05-23T11:56:05;99196.50;;;25.95;52.51
33845;BME280;20145;43.118;25.694;2023-05-23T11:58:35;99205.13;;;26.19;53.49
33845;BME280;20145;43.118;25.694;2023-05-23T12:01:10;99178.91;;;26.16;52.18
33845;BME280;20145;43.118;25.694;2023-05-23T12:03:46;99193.09;;;26.04;51.56
33845;BME280;20145;43.118;25.694;2023-05-23T12:06:17;99197.25;;;26.40;52.26
33845;BME280;20145;43.118;25.694;2023-05-23T12:08:43;99191.66;;;26.11;50.20
33845;BME280;20145;43.118;25.694;2023-05-23T12:11:09;99187.19;;;26.23;50.50
33845;BME280;20145;43.118;25.694;2023-05-23T12:13:36;99172.53;;;26.08;48.83
33845;BME280;20145;43.118;25.694;2023-05-23T12:16:01;99190.72;;;25.90;50.04
33845;BME280;20145;43.118;25.694;2023-05-23T12:18:30;99178.81;;;25.50;49.27
33845;BME280;20145;43.118;25.694;2023-05-23T12:21:01;99181.94;;;25.78;49.35
33845;BME280;20145;43.118;25.694;2023-05-23T12:23:27;99181.44;;;25.73;47.45
33845;BME280;20145;43.118;25.694;2023-05-23T12:25:54;99175.66;;;25.79;47.54
33845;BME280;20145;43.118;25.694;2023-05-23T12:28:34;99169.31;;;26.04;48.30
33845;BME280;20145;43.118;25.694;2023-05-23T12:31:11;99168.41;;;26.26;45.91
33845;BME280;20145;43.118;25.694;2023-05-23T12:33:40;99166.13;;;26.21;47.02
33845;BME280;20145;43.118;25.694;2023-05-23T12:36:08;99164.75;;;26.61;44.63
33845;BME280;20145;43.118;25.694;2023-05-23T12:38:33;99157.69;;;26.71;44.90
33845;BME280;20145;43.118;25.694;2023-05-23T12:41:15;99159.47;;;25.61;45.50
33845;BME280;20145;43.118;25.694;2023-05-23T12:43:49;99149.78;;;24.68;50.21
33845;BME280;20145;43.118;25.694;2023-05-23T12:46:17;99152.41;;;24.68;54.25
33845;BME280;20145;43.118;25.694;2023-05-23T12:48:44;99144.59;;;24.43;54.96
33845;BME280;20145;43.118;25.694;2023-05-23T12:51:11;99153.47;;;24.42;54.46
33845;BME280;20145;43.118;25.694;2023-05-23T12:53:36;99148.03;;;24.32;54.14
33845;BME280;20145;43.118;25.694;2023-05-23T12:56:02;99152.84;;;24.38;54.29
33845;BME280;20145;43.118;25.694;2023-05-23T12:58:27;99138.44;;;24.31;54.27
33845;BME280;20145;43.118;25.694;2023-05-23T13:00:54;99130.53;;;24.31;55.78
33845;BME280;20145;43.118;25.694;2023-05-23T13:03:19;99136.41;;;24.35;54.81
33845;BME280;20145;43.118;25.694;2023-05-23T13:05:45;99138.31;;;24.33;55.40
33845;BME280;20145;43.118;25.694;2023-05-23T13:08:12;99139.25;;;24.44;54.64
33845;BME280;20145;43.118;25.694;2023-05-23T13:10:38;99147.38;;;24.65;54.15
33845;BME280;20145;43.118;25.694;2023-05-23T13:13:04;99135.66;;;24.69;53.65
33845;BME280;20145;43.118;25.694;2023-05-23T13:15:30;99124.03;;;24.83;52.77
33845;BME280;20145;43.118;25.694;2023-05-23T13:17:56;99129.25;;;25.07;51.38
33845;BME280;20145;43.118;25.694;2023-05-23T13:20:21;99116.50;;;25.01;49.76
33845;BME280;20145;43.118;25.694;2023-05-23T13:22:47;99121.72;;;25.14;49.01
33845;BME280;20145;43.118;25.694;2023-05-23T13:25:13;99131.34;;;25.26;48.12
33845;BME280;20145;43.118;25.694;2023-05-23T13:27:38;99118.13;;;25.26;47.45
33845;BME280;20145;43.118;25.694;2023-05-23T13:30:06;99131.94;;;25.30;46.86
33845;BME280;20145;43.118;25.694;2023-05-23T13:32:32;99127.53;;;25.30;46.38
33845;BME280;20145;43.118;25.694;2023-05-23T13:34:58;99122.69;;;25.35;45.79
33845;BME280;20145;43.118;25.694;2023-05-23T13:37:23;99113.28;;;25.09;47.78
33845;BME280;20145;43.118;25.694;2023-05-23T13:39:50;99117.72;;;24.97;49.19
33845;BME280;20145;43.118;25.694;2023-05-23T13:42:15;99126.09;;;24.91;51.56
33845;BME280;20145;43.118;25.694;2023-05-23T13:44:41;99110.97;;;24.93;51.49
33845;BME280;20145;43.118;25.694;2023-05-23T13:47:13;99124.59;;;25.11;52.04
33845;BME280;20145;43.118;25.694;2023-05-23T13:49:40;99113.97;;;25.00;50.78
33845;BME280;20145;43.118;25.694;2023-05-23T13:52:08;99130.19;;;24.95;52.24
33845;BME280;20145;43.118;25.694;2023-05-23T13:54:33;99121.78;;;24.90;51.66
33845;BME280;20145;43.118;25.694;2023-05-23T13:56:59;99118.81;;;25.06;51.68
33845;BME280;20145;43.118;25.694;2023-05-23T13:59:26;99128.28;;;25.08;51.81
33845;BME280;20145;43.118;25.694;2023-05-23T14:01:53;99131.41;;;25.13;50.97
33845;BME280;20145;43.118;25.694;2023-05-23T14:04:18;99135.78;;;25.26;50.54
33845;BME280;20145;43.118;25.694;2023-05-23T14:06:44;99119.22;;;25.24;51.35
33845;BME280;20145;43.118;25.694;2023-05-23T14:09:10;99125.34;;;25.35;49.39
33845;BME280;20145;43.118;25.694;2023-05-23T14:11:37;99115.97;;;25.43;51.21
33845;BME280;20145;43.118;25.694;2023-05-23T14:14:10;99126.06;;;25.60;48.99
33845;BME280;20145;43.118;25.694;2023-05-23T14:16:37;99111.75;;;25.63;49.22
33845;BME280;20145;43.118;25.694;2023-05-23T14:19:03;99122.47;;;25.61;49.68
33845;BME280;20145;43.118;25.694;2023-05-23T14:21:28;99120.53;;;25.41;47.65
33845;BME280;20145;43.118;25.694;2023-05-23T14:23:54;99119.69;;;25.40;49.04
33845;BME280;20145;43.118;25.694;2023-05-23T14:26:19;99115.72;;;25.57;48.30
33845;BME280;20145;43.118;25.694;2023-05-23T14:28:46;99121.97;;;25.90;47.65
33845;BME280;20145;43.118;25.694;2023-05-23T14:31:12;99116.78;;;26.11;47.40
33845;BME280;20145;43.118;25.694;2023-05-23T14:33:38;99106.94;;;25.90;46.99
33845;BME280;20145;43.118;25.694;2023-05-23T14:36:03;99120.50;;;25.74;47.90